createdAt,value
2023-02-02T00:00:34.122Z,0.00
2023-02-02T00:01:34.092Z,0.00
2023-02-02T00:02:34.189Z,0.00
2023-02-02T00:03:34.130Z,0.00
2023-02-02T00:04:34.080Z,0.00
2023-02-02T00:05:34.075Z,0.00
2023-02-02T00:06:34.076Z,0.00
2023-02-02T00:07:34.047Z,0.00
2023-02-02T00:08:34.035Z,0.00
2023-02-02T00:09:34.065Z,0.00
2023-02-02T00:10:34.003Z,0.00
2023-02-02T00:11:34.029Z,0.00
2023-02-02T00:12:33.987Z,0.00
2023-02-02T00:13:33.995Z,0.00
2023-02-02T00:14:33.979Z,0.00
2023-02-02T00:15:33.985Z,0.00
2023-02-02T00:16:34.162Z,0.00
2023-02-02T00:17:33.940Z,0.00
2023-02-02T00:18:33.911Z,0.00
2023-02-02T00:19:33.896Z,0.00
2023-02-02T00:20:33.906Z,0.00
2023-02-02T00:21:33.910Z,0.00
2023-02-02T00:22:33.892Z,0.00
2023-02-02T00:23:33.874Z,0.00
2023-02-02T00:24:33.849Z,0.00
2023-02-02T00:25:33.835Z,0.00
2023-02-02T00:26:33.903Z,0.00
2023-02-02T00:27:33.843Z,0.00
2023-02-02T00:28:33.804Z,0.00
2023-02-02T00:29:33.807Z,0.00
2023-02-02T00:30:33.792Z,0.00
2023-02-02T00:31:33.846Z,0.00
2023-02-02T00:32:33.815Z,0.00
2023-02-02T00:33:33.746Z,0.00
2023-02-02T00:34:33.744Z,0.00
2023-02-02T00:35:33.759Z,0.00
2023-02-02T00:36:33.729Z,0.00
2023-02-02T00:37:33.695Z,0.00
2023-02-02T00:38:33.725Z,0.00
2023-02-02T00:39:33.687Z,0.00
2023-02-02T00:40:33.665Z,0.00
2023-02-02T00:41:33.690Z,0.00
2023-02-02T00:42:33.671Z,0.00
2023-02-02T00:43:33.645Z,0.00
2023-02-02T00:44:33.660Z,0.00
2023-02-02T00:45:33.672Z,0.00
2023-02-02T00:46:33.637Z,0.00
2023-02-02T00:47:33.620Z,0.00
2023-02-02T00:48:33.603Z,0.00
2023-02-02T00:49:33.571Z,0.00
2023-02-02T00:50:33.599Z,0.00
2023-02-02T00:51:33.544Z,0.00
2023-02-02T00:52:33.564Z,0.00
2023-02-02T00:53:33.543Z,0.00
2023-02-02T00:54:33.537Z,0.00
2023-02-02T00:55:33.521Z,0.00
2023-02-02T00:56:33.531Z,0.00
2023-02-02T00:57:33.504Z,0.00
2023-02-02T00:58:33.474Z,0.00
2023-02-02T00:59:33.482Z,0.00
2023-02-02T01:00:33.455Z,0.00
2023-02-02T01:01:33.442Z,0.00
2023-02-02T01:02:33.470Z,0.00
2023-02-02T01:03:33.451Z,0.00
2023-02-02T01:04:33.482Z,0.00
2023-02-02T01:05:33.403Z,0.00
2023-02-02T01:06:33.378Z,0.00
2023-02-02T01:07:33.407Z,0.00
2023-02-02T01:08:33.369Z,0.00
2023-02-02T01:09:33.397Z,0.00
2023-02-02T01:10:33.339Z,0.00
2023-02-02T01:11:33.348Z,0.00
2023-02-02T01:12:33.357Z,0.00
2023-02-02T01:13:33.315Z,0.00
2023-02-02T01:14:33.310Z,0.00
2023-02-02T01:15:33.294Z,0.00
2023-02-02T01:16:33.359Z,0.00
2023-02-02T01:17:33.282Z,0.00
2023-02-02T01:18:33.299Z,0.00
2023-02-02T01:19:33.263Z,0.00
2023-02-02T01:20:33.228Z,0.00
2023-02-02T01:21:33.216Z,0.00
2023-02-02T01:22:33.204Z,0.00
2023-02-02T01:23:33.193Z,0.00
2023-02-02T01:24:33.205Z,0.00
2023-02-02T01:25:33.189Z,0.00
2023-02-02T01:26:33.225Z,0.00
2023-02-02T01:27:33.157Z,0.00
2023-02-02T01:28:33.138Z,0.00
2023-02-02T01:29:33.148Z,0.00
2023-02-02T01:30:33.120Z,0.00
2023-02-02T01:31:33.200Z,0.00
2023-02-02T01:32:33.125Z,0.00
2023-02-02T01:33:33.090Z,0.00
2023-02-02T01:34:33.102Z,0.00
2023-02-02T01:35:33.100Z,0.00
2023-02-02T01:36:33.066Z,0.00
2023-02-02T01:37:33.071Z,0.00
2023-02-02T01:38:33.051Z,0.00
2023-02-02T01:39:34.306Z,0.00
2023-02-02T01:40:33.049Z,0.00
2023-02-02T01:41:33.023Z,0.00
2023-02-02T01:42:32.985Z,0.00
2023-02-02T01:43:32.999Z,0.00
2023-02-02T01:44:32.981Z,0.00
2023-02-02T01:45:33.040Z,0.00
2023-02-02T01:46:32.951Z,0.00
2023-02-02T01:47:32.933Z,0.00
2023-02-02T01:48:32.920Z,0.00
2023-02-02T01:49:32.945Z,0.00
2023-02-02T01:50:32.929Z,0.00
2023-02-02T01:51:32.930Z,0.00
2023-02-02T01:52:32.888Z,0.00
2023-02-02T01:53:32.929Z,0.00
2023-02-02T01:54:32.886Z,0.00
2023-02-02T01:55:32.858Z,0.00
2023-02-02T01:56:32.848Z,0.00
2023-02-02T01:57:32.836Z,0.00
2023-02-02T01:58:32.815Z,0.00
2023-02-02T01:59:32.803Z,0.00
2023-02-02T02:00:32.845Z,0.00
2023-02-02T02:01:32.866Z,0.00
2023-02-02T02:02:32.829Z,0.00
2023-02-02T02:03:32.767Z,0.00
2023-02-02T02:04:32.750Z,0.00
2023-02-02T02:05:32.760Z,0.00
2023-02-02T02:06:32.753Z,0.00
2023-02-02T02:07:32.746Z,0.00
2023-02-02T02:08:32.716Z,0.00
2023-02-02T02:09:32.698Z,0.00
2023-02-02T02:10:32.686Z,0.00
2023-02-02T02:11:32.680Z,0.00
2023-02-02T02:12:32.709Z,0.00
2023-02-02T02:13:32.669Z,0.00
2023-02-02T02:14:32.663Z,0.00
2023-02-02T02:15:32.645Z,0.00
2023-02-02T02:16:32.692Z,0.00
2023-02-02T02:17:32.622Z,0.00
2023-02-02T02:18:32.624Z,0.00
2023-02-02T02:19:32.588Z,0.00
2023-02-02T02:20:32.593Z,0.00
2023-02-02T02:21:32.587Z,0.00
2023-02-02T02:22:32.589Z,0.00
2023-02-02T02:23:32.579Z,0.00
2023-02-02T02:24:32.550Z,0.00
2023-02-02T02:25:32.583Z,0.00
2023-02-02T02:26:32.620Z,0.00
2023-02-02T02:27:32.515Z,0.00
2023-02-02T02:28:32.520Z,0.00
2023-02-02T02:29:32.520Z,0.00
2023-02-02T02:30:32.615Z,0.00
2023-02-02T02:31:32.595Z,0.00
2023-02-02T02:32:32.454Z,0.00
2023-02-02T02:33:32.472Z,0.00
2023-02-02T02:34:32.423Z,0.00
2023-02-02T02:35:32.423Z,0.00
2023-02-02T02:36:32.405Z,0.00
2023-02-02T02:37:32.410Z,0.00
2023-02-02T02:38:32.390Z,0.00
2023-02-02T02:39:32.395Z,0.00
2023-02-02T02:40:32.389Z,0.00
2023-02-02T02:41:32.363Z,0.00
2023-02-02T02:42:32.332Z,0.00
2023-02-02T02:43:32.344Z,0.00
2023-02-02T02:44:32.330Z,0.00
2023-02-02T02:45:32.314Z,0.00
2023-02-02T02:46:32.382Z,0.00
2023-02-02T02:47:32.307Z,0.00
2023-02-02T02:48:32.286Z,0.00
2023-02-02T02:49:32.277Z,0.00
2023-02-02T02:50:32.252Z,0.00
2023-02-02T02:51:32.243Z,0.00
2023-02-02T02:52:32.255Z,0.00
2023-02-02T02:53:32.225Z,0.00
2023-02-02T02:54:32.201Z,0.00
2023-02-02T02:55:32.217Z,0.00
2023-02-02T02:56:32.210Z,0.00
2023-02-02T02:57:32.210Z,0.00
2023-02-02T02:58:32.197Z,0.00
2023-02-02T02:59:32.153Z,0.00
2023-02-02T03:00:32.154Z,0.00
2023-02-02T03:01:32.232Z,0.00
2023-02-02T03:02:32.175Z,0.00
2023-02-02T03:03:32.120Z,0.00
2023-02-02T03:04:32.112Z,0.00
2023-02-02T03:05:32.107Z,0.00
2023-02-02T03:06:32.083Z,0.00
2023-02-02T03:07:32.063Z,0.00
2023-02-02T03:08:32.072Z,0.00
2023-02-02T03:09:32.070Z,0.00
2023-02-02T03:10:32.059Z,0.00
2023-02-02T03:11:32.058Z,0.00
2023-02-02T03:12:32.031Z,0.00
2023-02-02T03:13:32.002Z,0.00
2023-02-02T03:14:32.029Z,0.00
2023-02-02T03:15:32.017Z,0.00
2023-02-02T03:16:31.992Z,0.00
2023-02-02T03:17:31.978Z,0.00
2023-02-02T03:18:31.940Z,0.00
2023-02-02T03:19:31.939Z,0.00
2023-02-02T03:20:31.942Z,0.00
2023-02-02T03:21:31.962Z,0.00
2023-02-02T03:22:31.915Z,0.00
2023-02-02T03:23:31.893Z,0.00
2023-02-02T03:24:31.901Z,0.00
2023-02-02T03:25:31.887Z,0.00
2023-02-02T03:26:31.908Z,0.00
2023-02-02T03:27:31.916Z,0.00
2023-02-02T03:28:31.897Z,0.00
2023-02-02T03:29:31.841Z,0.00
2023-02-02T03:30:31.887Z,0.00
2023-02-02T03:31:31.968Z,0.00
2023-02-02T03:32:31.827Z,0.00
2023-02-02T03:33:31.802Z,0.00
2023-02-02T03:34:31.792Z,0.00
2023-02-02T03:35:31.762Z,0.00
2023-02-02T03:36:31.779Z,0.00
2023-02-02T03:37:31.767Z,0.00
2023-02-02T03:38:31.753Z,0.00
2023-02-02T03:39:31.724Z,0.00
2023-02-02T03:40:31.714Z,0.00
2023-02-02T03:41:31.728Z,0.00
2023-02-02T03:42:31.720Z,0.00
2023-02-02T03:43:31.701Z,0.00
2023-02-02T03:44:31.707Z,0.00
2023-02-02T03:45:31.706Z,0.00
2023-02-02T03:46:31.705Z,0.00
2023-02-02T03:47:31.650Z,0.00
2023-02-02T03:48:31.633Z,0.00
2023-02-02T03:49:31.609Z,0.00
2023-02-02T03:50:31.676Z,0.00
2023-02-02T03:51:31.624Z,0.00
2023-02-02T03:52:31.588Z,0.00
2023-02-02T03:53:31.561Z,0.00
2023-02-02T03:54:31.576Z,0.00
2023-02-02T03:55:31.574Z,0.00
2023-02-02T03:56:31.580Z,0.00
2023-02-02T03:57:31.530Z,0.00
2023-02-02T03:58:31.526Z,0.00
2023-02-02T03:59:31.534Z,0.00
2023-02-02T04:00:31.503Z,0.00
2023-02-02T04:01:31.494Z,0.00
2023-02-02T04:02:31.493Z,0.00
2023-02-02T04:03:31.456Z,0.00
2023-02-02T04:04:31.446Z,0.00
2023-02-02T04:05:31.432Z,0.00
2023-02-02T04:06:31.444Z,0.00
2023-02-02T04:07:31.439Z,0.00
2023-02-02T04:08:31.417Z,0.00
2023-02-02T04:09:31.411Z,0.00
2023-02-02T04:10:31.392Z,0.00
2023-02-02T04:11:31.384Z,0.00
2023-02-02T04:12:31.403Z,0.00
2023-02-02T04:13:31.376Z,0.00
2023-02-02T04:14:31.336Z,0.00
2023-02-02T04:15:31.382Z,0.00
2023-02-02T04:16:31.360Z,0.00
2023-02-02T04:17:31.323Z,0.00
2023-02-02T04:18:31.311Z,0.00
2023-02-02T04:19:31.286Z,0.00
2023-02-02T04:20:31.275Z,0.00
2023-02-02T04:21:31.280Z,0.00
2023-02-02T04:22:31.267Z,0.00
2023-02-02T04:23:31.279Z,0.00
2023-02-02T04:24:31.230Z,0.00
2023-02-02T04:25:31.242Z,0.00
2023-02-02T04:26:31.257Z,0.00
2023-02-02T04:27:31.231Z,0.00
2023-02-02T04:28:31.195Z,0.00
2023-02-02T04:29:31.202Z,0.00
2023-02-02T04:30:31.216Z,0.00
2023-02-02T04:31:31.182Z,0.00
2023-02-02T04:32:31.147Z,0.00
2023-02-02T04:33:31.158Z,0.00
2023-02-02T04:34:31.121Z,0.00
2023-02-02T04:35:31.128Z,0.00
2023-02-02T04:36:31.110Z,0.00
2023-02-02T04:37:31.111Z,0.00
2023-02-02T04:38:31.099Z,0.00
2023-02-02T04:39:31.135Z,0.00
2023-02-02T04:40:31.073Z,0.00
2023-02-02T04:41:31.092Z,0.00
2023-02-02T04:42:31.038Z,0.00
2023-02-02T04:43:31.039Z,0.00
2023-02-02T04:44:31.015Z,0.00
2023-02-02T04:45:31.062Z,0.00
2023-02-02T04:46:31.011Z,0.00
2023-02-02T04:47:31.013Z,0.00
2023-02-02T04:48:30.983Z,0.00
2023-02-02T04:49:30.985Z,0.00
2023-02-02T04:50:30.991Z,0.00
2023-02-02T04:51:30.960Z,0.00
2023-02-02T04:52:30.955Z,0.00
2023-02-02T04:53:30.933Z,0.00
2023-02-02T04:54:30.924Z,0.00
2023-02-02T04:55:30.924Z,0.00
2023-02-02T04:56:30.894Z,0.00
2023-02-02T04:57:30.876Z,0.00
2023-02-02T04:58:30.892Z,0.00
2023-02-02T04:59:30.867Z,0.00
2023-02-02T05:00:30.860Z,0.00
2023-02-02T05:01:30.953Z,0.00
2023-02-02T05:02:30.835Z,0.00
2023-02-02T05:03:30.883Z,0.00
2023-02-02T05:04:30.833Z,0.00
2023-02-02T05:05:30.798Z,0.00
2023-02-02T05:06:30.784Z,0.00
2023-02-02T05:07:30.782Z,0.00
2023-02-02T05:08:30.759Z,0.00
2023-02-02T05:09:30.763Z,0.00
2023-02-02T05:10:30.729Z,0.00
2023-02-02T05:11:30.736Z,0.00
2023-02-02T05:12:30.742Z,0.00
2023-02-02T05:13:30.711Z,0.00
2023-02-02T05:14:30.713Z,0.00
2023-02-02T05:15:30.712Z,0.00
2023-02-02T05:16:30.694Z,0.00
2023-02-02T05:17:30.669Z,0.00
2023-02-02T05:18:30.657Z,0.00
2023-02-02T05:19:30.679Z,0.00
2023-02-02T05:20:30.644Z,0.00
2023-02-02T05:21:30.623Z,0.00
2023-02-02T05:22:30.635Z,0.00
2023-02-02T05:23:30.599Z,0.00
2023-02-02T05:24:30.591Z,0.00
2023-02-02T05:25:30.587Z,0.00
2023-02-02T05:26:30.686Z,0.00
2023-02-02T05:27:30.551Z,0.00
2023-02-02T05:28:30.607Z,0.00
2023-02-02T05:29:30.528Z,0.00
2023-02-02T05:30:33.220Z,0.00
2023-02-02T05:31:30.543Z,0.00
2023-02-02T05:32:30.522Z,0.00
2023-02-02T05:33:30.511Z,0.00
2023-02-02T05:34:30.471Z,0.00
2023-02-02T05:35:30.489Z,0.00
2023-02-02T05:36:30.478Z,0.00
2023-02-02T05:37:30.454Z,0.00
2023-02-02T05:38:30.455Z,0.00
2023-02-02T05:39:30.415Z,0.00
2023-02-02T05:40:30.421Z,0.00
2023-02-02T05:41:30.417Z,0.00
2023-02-02T05:42:30.410Z,0.00
2023-02-02T05:43:30.368Z,0.00
2023-02-02T05:44:30.378Z,0.00
2023-02-02T05:45:30.350Z,0.00
2023-02-02T05:46:30.346Z,0.00
2023-02-02T05:47:30.331Z,0.00
2023-02-02T05:48:30.343Z,0.00
2023-02-02T05:49:30.431Z,0.00
2023-02-02T05:50:30.299Z,0.00
2023-02-02T05:51:30.318Z,0.00
2023-02-02T05:52:30.285Z,0.00
2023-02-02T05:53:30.272Z,0.00
2023-02-02T05:54:30.268Z,0.00
2023-02-02T05:55:30.245Z,0.00
2023-02-02T05:56:30.294Z,0.00
2023-02-02T05:57:30.237Z,0.00
2023-02-02T05:58:30.219Z,0.00
2023-02-02T05:59:30.216Z,0.00
2023-02-02T06:00:30.184Z,0.00
2023-02-02T06:01:30.197Z,0.00
2023-02-02T06:02:30.204Z,0.00
2023-02-02T06:03:30.321Z,0.00
2023-02-02T06:04:30.216Z,0.00
2023-02-02T06:05:30.147Z,0.00
2023-02-02T06:06:30.125Z,0.00
2023-02-02T06:07:30.141Z,0.00
2023-02-02T06:08:30.140Z,0.00
2023-02-02T06:09:30.113Z,0.00
2023-02-02T06:10:30.082Z,0.00
2023-02-02T06:11:30.068Z,0.00
2023-02-02T06:12:30.100Z,0.00
2023-02-02T06:13:30.058Z,0.00
2023-02-02T06:14:30.078Z,0.00
2023-02-02T06:15:30.116Z,0.00
2023-02-02T06:16:30.034Z,0.00
2023-02-02T06:17:30.041Z,0.00
2023-02-02T06:18:30.012Z,0.00
2023-02-02T06:19:29.998Z,0.00
2023-02-02T06:20:29.990Z,0.00
2023-02-02T06:21:29.975Z,0.00
2023-02-02T06:22:29.967Z,0.00
2023-02-02T06:23:29.982Z,0.00
2023-02-02T06:24:29.963Z,0.00
2023-02-02T06:25:29.927Z,0.00
2023-02-02T06:26:30.010Z,0.00
2023-02-02T06:27:29.924Z,0.00
2023-02-02T06:28:31.042Z,0.00
2023-02-02T06:29:29.892Z,0.00
2023-02-02T06:30:29.868Z,0.00
2023-02-02T06:31:29.988Z,0.00
2023-02-02T06:32:29.862Z,0.00
2023-02-02T06:33:29.842Z,0.00
2023-02-02T06:34:29.827Z,0.00
2023-02-02T06:35:29.915Z,0.00
2023-02-02T06:36:29.820Z,0.00
2023-02-02T06:37:30.818Z,0.00
2023-02-02T06:38:29.779Z,0.00
2023-02-02T06:39:29.792Z,0.00
2023-02-02T06:40:29.814Z,0.00
2023-02-02T06:41:29.817Z,0.00
2023-02-02T06:42:29.754Z,0.00
2023-02-02T06:43:29.744Z,0.00
2023-02-02T06:44:29.730Z,0.00
2023-02-02T06:45:29.730Z,0.00
2023-02-02T06:46:29.782Z,0.00
2023-02-02T06:47:29.690Z,0.00
2023-02-02T06:48:29.680Z,0.00
2023-02-02T06:49:29.656Z,0.00
2023-02-02T06:50:29.727Z,0.00
2023-02-02T06:51:29.643Z,0.00
2023-02-02T06:52:29.675Z,0.00
2023-02-02T06:53:29.649Z,0.00
2023-02-02T06:54:29.710Z,0.00
2023-02-02T06:55:29.639Z,0.00
2023-02-02T06:56:29.600Z,0.00
2023-02-02T06:57:29.578Z,0.00
2023-02-02T06:58:29.572Z,0.00
2023-02-02T06:59:29.573Z,0.00
2023-02-02T07:00:29.607Z,0.00
2023-02-02T07:01:29.639Z,0.00
2023-02-02T07:02:29.567Z,0.00
2023-02-02T07:03:29.513Z,0.00
2023-02-02T07:04:29.533Z,0.00
2023-02-02T07:05:30.870Z,0.00
2023-02-02T07:06:29.482Z,0.00
2023-02-02T07:07:29.476Z,0.00
2023-02-02T07:08:29.485Z,0.00
2023-02-02T07:09:29.478Z,0.00
2023-02-02T07:11:13.627Z,0.00
2023-02-02T07:11:30.601Z,0.00
2023-02-02T07:12:29.424Z,0.00
2023-02-02T07:13:29.425Z,0.00
2023-02-02T07:14:29.429Z,0.00
2023-02-02T07:15:29.458Z,0.00
2023-02-02T07:16:29.385Z,5.62
2023-02-02T07:17:29.355Z,0.00
2023-02-02T07:18:29.356Z,0.00
2023-02-02T07:19:29.346Z,0.00
2023-02-02T07:20:29.391Z,0.00
2023-02-02T07:21:29.370Z,5.62
2023-02-02T07:22:29.313Z,5.62
2023-02-02T07:23:29.309Z,5.62
2023-02-02T07:24:29.851Z,5.62
2023-02-02T07:25:29.275Z,5.62
2023-02-02T07:26:29.300Z,5.62
2023-02-02T07:27:29.305Z,5.62
2023-02-02T07:28:29.243Z,5.62
2023-02-02T07:29:29.252Z,5.62
2023-02-02T07:30:29.327Z,5.62
2023-02-02T07:31:29.323Z,5.62
2023-02-02T07:32:29.201Z,5.62
2023-02-02T07:33:29.181Z,5.62
2023-02-02T07:34:29.191Z,11.25
2023-02-02T07:35:29.194Z,11.25
2023-02-02T07:36:29.148Z,11.25
2023-02-02T07:37:29.161Z,16.88
2023-02-02T07:38:29.132Z,16.88
2023-02-02T07:39:29.138Z,22.50
2023-02-02T07:40:29.123Z,22.50
2023-02-02T07:41:29.124Z,22.50
2023-02-02T07:42:29.100Z,22.50
2023-02-02T07:43:29.338Z,22.50
2023-02-02T07:44:29.072Z,28.12
2023-02-02T07:45:29.076Z,28.12
2023-02-02T07:46:29.115Z,28.12
2023-02-02T07:47:29.033Z,28.12
2023-02-02T07:48:29.041Z,28.12
2023-02-02T07:49:29.030Z,28.12
2023-02-02T07:50:29.004Z,28.12
2023-02-02T07:51:29.019Z,28.12
2023-02-02T07:52:28.972Z,28.12
2023-02-02T07:53:28.984Z,28.12
2023-02-02T07:54:28.976Z,22.50
2023-02-02T07:55:29.311Z,16.88
2023-02-02T07:56:28.979Z,16.88
2023-02-02T07:57:28.958Z,16.88
2023-02-02T07:58:28.917Z,11.25
2023-02-02T07:59:31.252Z,11.25
2023-02-02T08:00:28.937Z,5.62
2023-02-02T08:01:28.969Z,5.62
2023-02-02T08:02:29.106Z,5.62
2023-02-02T08:03:28.861Z,11.25
2023-02-02T08:04:28.873Z,11.25
2023-02-02T08:05:28.849Z,11.25
2023-02-02T08:06:28.894Z,16.88
2023-02-02T08:07:28.824Z,16.88
2023-02-02T08:08:28.877Z,22.50
2023-02-02T08:09:28.792Z,22.50
2023-02-02T08:10:28.799Z,22.50
2023-02-02T08:11:28.786Z,22.50
2023-02-02T08:12:28.776Z,22.50
2023-02-02T08:13:28.798Z,22.50
2023-02-02T08:14:28.770Z,22.50
2023-02-02T08:15:28.772Z,22.50
2023-02-02T08:16:28.836Z,28.12
2023-02-02T08:17:28.727Z,22.50
2023-02-02T08:18:28.692Z,28.12
2023-02-02T08:19:28.705Z,33.75
2023-02-02T08:20:28.673Z,39.38
2023-02-02T08:21:28.671Z,39.38
2023-02-02T08:22:28.714Z,39.38
2023-02-02T08:23:28.695Z,33.75
2023-02-02T08:24:28.665Z,33.75
2023-02-02T08:25:28.632Z,28.12
2023-02-02T08:26:28.723Z,33.75
2023-02-02T08:27:28.607Z,33.75
2023-02-02T08:28:28.612Z,33.75
2023-02-02T08:29:28.639Z,33.75
2023-02-02T08:30:28.601Z,33.75
2023-02-02T08:31:28.595Z,33.75
2023-02-02T08:32:28.540Z,28.12
2023-02-02T08:33:28.556Z,28.12
2023-02-02T08:34:28.529Z,28.12
2023-02-02T08:35:28.595Z,28.12
2023-02-02T08:36:28.493Z,28.12
2023-02-02T08:37:28.872Z,28.12
2023-02-02T08:38:28.492Z,22.50
2023-02-02T08:39:28.488Z,28.12
2023-02-02T08:40:28.499Z,28.12
2023-02-02T08:41:28.497Z,22.50
2023-02-02T08:42:28.459Z,22.50
2023-02-02T08:43:28.466Z,28.12
2023-02-02T08:44:44.888Z,28.12
2023-02-02T08:46:02.313Z,28.12
2023-02-02T08:46:29.639Z,33.75
2023-02-02T08:47:28.435Z,33.75
2023-02-02T08:48:28.419Z,39.38
2023-02-02T08:49:28.402Z,39.38
2023-02-02T08:50:28.374Z,39.38
2023-02-02T08:51:28.334Z,45.00
2023-02-02T08:52:28.341Z,45.00
2023-02-02T08:53:28.313Z,45.00
2023-02-02T08:54:28.337Z,45.00
2023-02-02T08:55:28.310Z,39.38
2023-02-02T08:56:28.282Z,39.38
2023-02-02T08:57:28.290Z,45.00
2023-02-02T08:58:28.310Z,45.00
2023-02-02T08:59:28.252Z,45.00
2023-02-02T09:00:28.250Z,50.62
2023-02-02T09:01:28.319Z,45.00
2023-02-02T09:02:28.402Z,45.00
2023-02-02T09:03:28.229Z,45.00
2023-02-02T09:04:28.205Z,45.00
2023-02-02T09:05:28.435Z,39.38
2023-02-02T09:06:28.222Z,33.75
2023-02-02T09:07:28.200Z,28.12
2023-02-02T09:08:28.270Z,28.12
2023-02-02T09:09:28.155Z,28.12
2023-02-02T09:10:28.131Z,28.12
2023-02-02T09:11:28.164Z,33.75
2023-02-02T09:12:28.141Z,33.75
2023-02-02T09:13:28.111Z,39.38
2023-02-02T09:14:28.071Z,45.00
2023-02-02T09:15:28.107Z,50.62
2023-02-02T09:16:28.160Z,61.88
2023-02-02T09:17:28.054Z,61.88
2023-02-02T09:18:28.072Z,73.12
2023-02-02T09:19:28.075Z,73.12
2023-02-02T09:20:28.013Z,73.12
2023-02-02T09:21:28.046Z,73.12
2023-02-02T09:22:28.962Z,78.75
2023-02-02T09:23:28.005Z,78.75
2023-02-02T09:24:27.983Z,78.75
2023-02-02T09:25:28.009Z,78.75
2023-02-02T09:26:28.111Z,73.12
2023-02-02T09:27:27.941Z,67.50
2023-02-02T09:28:27.929Z,73.12
2023-02-02T09:29:27.972Z,73.12
2023-02-02T09:30:27.936Z,78.75
2023-02-02T09:31:27.945Z,78.75
2023-02-02T09:32:27.884Z,78.75
2023-02-02T09:33:27.898Z,73.12
2023-02-02T09:34:27.871Z,73.12
2023-02-02T09:35:28.010Z,78.75
2023-02-02T09:36:27.874Z,84.38
2023-02-02T09:37:27.850Z,84.38
2023-02-02T09:38:27.935Z,78.75
2023-02-02T09:39:27.821Z,78.75
2023-02-02T09:40:27.816Z,78.75
2023-02-02T09:41:27.818Z,78.75
2023-02-02T09:42:27.875Z,73.12
2023-02-02T09:43:27.804Z,78.75
2023-02-02T09:44:27.786Z,73.12
2023-02-02T09:45:27.990Z,73.12
2023-02-02T09:46:27.754Z,67.50
2023-02-02T09:47:27.743Z,61.88
2023-02-02T09:48:27.746Z,56.25
2023-02-02T09:49:27.709Z,61.88
2023-02-02T09:50:27.741Z,73.12
2023-02-02T09:51:27.729Z,78.75
2023-02-02T09:52:27.661Z,78.75
2023-02-02T09:53:27.702Z,78.75
2023-02-02T09:54:27.697Z,78.75
2023-02-02T09:55:27.857Z,78.75
2023-02-02T09:56:27.662Z,101.25
2023-02-02T09:57:27.660Z,123.75
2023-02-02T09:58:27.627Z,129.38
2023-02-02T09:59:29.473Z,106.88
2023-02-02T10:00:27.610Z,95.62
2023-02-02T10:01:27.668Z,90.00
2023-02-02T10:02:27.628Z,95.62
2023-02-02T10:03:27.574Z,101.25
2023-02-02T10:04:27.648Z,112.50
2023-02-02T10:05:27.571Z,135.00
2023-02-02T10:06:27.545Z,140.62
2023-02-02T10:07:27.573Z,140.62
2023-02-02T10:08:34.771Z,135.00
2023-02-02T10:09:28.525Z,123.75
2023-02-02T10:10:27.471Z,123.75
2023-02-02T10:11:27.489Z,123.75
2023-02-02T10:12:27.474Z,112.50
2023-02-02T10:13:27.459Z,123.75
2023-02-02T10:14:27.532Z,135.00
2023-02-02T10:15:27.827Z,151.88
2023-02-02T10:16:27.422Z,157.50
2023-02-02T10:17:27.408Z,157.50
2023-02-02T10:18:27.433Z,151.88
2023-02-02T10:19:27.365Z,151.88
2023-02-02T10:20:27.768Z,151.88
2023-02-02T10:21:27.358Z,151.88
2023-02-02T10:22:27.366Z,157.50
2023-02-02T10:23:27.369Z,163.12
2023-02-02T10:24:27.444Z,174.38
2023-02-02T10:25:27.312Z,174.38
2023-02-02T10:26:27.367Z,185.62
2023-02-02T10:27:27.304Z,202.50
2023-02-02T10:28:27.294Z,213.75
2023-02-02T10:29:29.293Z,196.88
2023-02-02T10:30:28.272Z,163.12
2023-02-02T10:31:27.395Z,168.75
2023-02-02T10:32:27.300Z,191.25
2023-02-02T10:33:27.220Z,208.12
2023-02-02T10:34:27.211Z,196.88
2023-02-02T10:35:27.231Z,174.38
2023-02-02T10:36:27.206Z,151.88
2023-02-02T10:37:27.251Z,140.62
2023-02-02T10:38:27.158Z,135.00
2023-02-02T10:39:27.186Z,146.25
2023-02-02T10:40:27.475Z,140.62
2023-02-02T10:41:27.131Z,146.25
2023-02-02T10:42:27.143Z,157.50
2023-02-02T10:43:27.127Z,151.88
2023-02-02T10:44:27.110Z,135.00
2023-02-02T10:45:27.223Z,123.75
2023-02-02T10:46:27.108Z,129.38
2023-02-02T10:47:27.170Z,146.25
2023-02-02T10:48:27.064Z,168.75
2023-02-02T10:49:27.068Z,168.75
2023-02-02T10:50:27.966Z,168.75
2023-02-02T10:51:27.163Z,168.75
2023-02-02T10:52:27.043Z,163.12
2023-02-02T10:53:27.009Z,157.50
2023-02-02T10:54:26.993Z,146.25
2023-02-02T10:55:27.038Z,129.38
2023-02-02T10:56:27.011Z,123.75
2023-02-02T10:57:27.026Z,129.38
2023-02-02T10:58:26.970Z,146.25
2023-02-02T10:59:26.927Z,135.00
2023-02-02T11:00:27.245Z,140.62
2023-02-02T11:01:26.927Z,163.12
2023-02-02T11:02:26.939Z,174.38
2023-02-02T11:03:26.943Z,163.12
2023-02-02T11:04:26.876Z,146.25
2023-02-02T11:05:26.876Z,151.88
2023-02-02T11:06:26.866Z,163.12
2023-02-02T11:07:26.830Z,168.75
2023-02-02T11:08:26.830Z,174.38
2023-02-02T11:09:26.845Z,180.00
2023-02-02T11:10:27.208Z,196.88
2023-02-02T11:11:26.834Z,180.00
2023-02-02T11:12:26.783Z,185.62
2023-02-02T11:13:26.777Z,191.25
2023-02-02T11:14:26.797Z,191.25
2023-02-02T11:15:26.788Z,191.25
2023-02-02T11:16:32.606Z,185.62
2023-02-02T11:17:27.756Z,180.00
2023-02-02T11:18:26.799Z,174.38
2023-02-02T11:19:26.717Z,180.00
2023-02-02T11:20:26.996Z,168.75
2023-02-02T11:21:26.713Z,168.75
2023-02-02T11:22:26.681Z,163.12
2023-02-02T11:23:26.705Z,163.12
2023-02-02T11:24:26.748Z,146.25
2023-02-02T11:25:26.698Z,135.00
2023-02-02T11:26:26.699Z,146.25
2023-02-02T11:27:26.638Z,146.25
2023-02-02T11:28:26.828Z,151.88
2023-02-02T11:29:26.653Z,151.88
2023-02-02T11:30:26.846Z,140.62
2023-02-02T11:31:26.670Z,140.62
2023-02-02T11:32:26.601Z,140.62
2023-02-02T11:33:26.568Z,151.88
2023-02-02T11:34:26.565Z,168.75
2023-02-02T11:35:26.545Z,140.62
2023-02-02T11:36:26.514Z,118.12
2023-02-02T11:37:26.506Z,118.12
2023-02-02T11:38:26.524Z,123.75
2023-02-02T11:39:26.495Z,135.00
2023-02-02T11:40:26.993Z,140.62
2023-02-02T11:41:26.482Z,140.62
2023-02-02T11:42:26.443Z,118.12
2023-02-02T11:43:26.486Z,106.88
2023-02-02T11:44:26.456Z,106.88
2023-02-02T11:45:26.421Z,112.50
2023-02-02T11:46:26.465Z,118.12
2023-02-02T11:47:26.437Z,112.50
2023-02-02T11:48:26.397Z,118.12
2023-02-02T11:49:26.463Z,101.25
2023-02-02T11:50:26.763Z,84.38
2023-02-02T11:51:26.442Z,84.38
2023-02-02T11:52:26.352Z,84.38
2023-02-02T11:53:26.327Z,90.00
2023-02-02T11:54:26.351Z,101.25
2023-02-02T11:55:26.314Z,95.62
2023-02-02T11:56:26.332Z,95.62
2023-02-02T11:57:26.309Z,90.00
2023-02-02T11:58:26.317Z,84.38
2023-02-02T11:59:26.499Z,106.88
2023-02-02T12:00:26.579Z,112.50
2023-02-02T12:01:26.238Z,118.12
2023-02-02T12:02:26.398Z,123.75
2023-02-02T12:03:26.234Z,112.50
2023-02-02T12:04:26.359Z,101.25
2023-02-02T12:05:26.207Z,90.00
2023-02-02T12:06:26.232Z,90.00
2023-02-02T12:07:26.184Z,95.62
2023-02-02T12:08:26.210Z,95.62
2023-02-02T12:09:26.162Z,106.88
2023-02-02T12:10:26.607Z,106.88
2023-02-02T12:11:26.159Z,90.00
2023-02-02T12:12:26.164Z,101.25
2023-02-02T12:13:26.116Z,101.25
2023-02-02T12:14:26.107Z,112.50
2023-02-02T12:15:26.097Z,129.38
2023-02-02T12:16:26.151Z,146.25
2023-02-02T12:17:26.335Z,151.88
2023-02-02T12:18:26.050Z,140.62
2023-02-02T12:19:26.051Z,129.38
2023-02-02T12:20:26.503Z,123.75
2023-02-02T12:21:26.028Z,112.50
2023-02-02T12:22:26.051Z,95.62
2023-02-02T12:23:26.011Z,95.62
2023-02-02T12:24:25.989Z,106.88
2023-02-02T12:25:26.499Z,129.38
2023-02-02T12:26:25.997Z,140.62
2023-02-02T12:27:25.991Z,163.12
2023-02-02T12:28:25.961Z,146.25
2023-02-02T12:29:25.925Z,140.62
2023-02-02T12:30:26.280Z,157.50
2023-02-02T12:31:25.965Z,168.75
2023-02-02T12:32:25.900Z,174.38
2023-02-02T12:33:25.902Z,174.38
2023-02-02T12:34:25.858Z,180.00
2023-02-02T12:35:25.912Z,185.62
2023-02-02T12:36:25.853Z,185.62
2023-02-02T12:37:25.840Z,185.62
2023-02-02T12:38:25.937Z,180.00
2023-02-02T12:39:25.862Z,163.12
2023-02-02T12:40:26.367Z,163.12
2023-02-02T12:41:25.803Z,151.88
2023-02-02T12:42:25.800Z,163.12
2023-02-02T12:43:25.779Z,157.50
2023-02-02T12:44:25.784Z,168.75
2023-02-02T12:45:25.842Z,180.00
2023-02-02T12:46:25.777Z,180.00
2023-02-02T12:47:25.782Z,185.62
2023-02-02T12:48:25.707Z,202.50
2023-02-02T12:49:25.742Z,202.50
2023-02-02T12:50:26.083Z,208.12
2023-02-02T12:51:25.701Z,213.75
2023-02-02T12:52:25.671Z,230.62
2023-02-02T12:53:25.651Z,247.50
2023-02-02T12:54:34.401Z,247.50
2023-02-02T12:55:26.631Z,241.88
2023-02-02T12:56:25.631Z,230.62
2023-02-02T12:57:25.619Z,208.12
2023-02-02T12:58:25.600Z,191.25
2023-02-02T12:59:25.620Z,185.62
2023-02-02T13:00:25.948Z,180.00
2023-02-02T13:01:25.626Z,168.75